sensor_id;sensor_type;location;lat;lon;timestamp;P1;durP1;ratioP1;P2;durP2;ratioP2
75169;SDS011;63749;49.186;9.222;2023-09-07T00:01:33;8.23;;;5.10;;
75169;SDS011;63749;49.186;9.222;2023-09-07T00:03:58;8.35;;;4.68;;
75169;SDS011;63749;49.186;9.222;2023-09-07T00:06:23;7.17;;;4.50;;
75169;SDS011;63749;49.186;9.222;2023-09-07T00:08:50;7.60;;;4.63;;
75169;SDS011;63749;49.186;9.222;2023-09-07T00:11:15;9.70;;;4.80;;
75169;SDS011;63749;49.186;9.222;2023-09-07T00:13:40;7.83;;;4.70;;
75169;SDS011;63749;49.186;9.222;2023-09-07T00:16:06;7.27;;;4.83;;
75169;SDS011;63749;49.186;9.222;2023-09-07T00:18:32;6.50;;;4.70;;
75169;SDS011;63749;49.186;9.222;2023-09-07T00:20:58;6.83;;;4.57;;
75169;SDS011;63749;49.186;9.222;2023-09-07T00:23:24;8.13;;;4.50;;
75169;SDS011;63749;49.186;9.222;2023-09-07T00:25:50;6.72;;;4.60;;
75169;SDS011;63749;49.186;9.222;2023-09-07T00:28:17;9.07;;;5.10;;
75169;SDS011;63749;49.186;9.222;2023-09-07T00:30:42;6.50;;;4.80;;
75169;SDS011;63749;49.186;9.222;2023-09-07T00:33:08;7.07;;;4.60;;
75169;SDS011;63749;49.186;9.222;2023-09-07T00:35:33;6.22;;;4.55;;
75169;SDS011;63749;49.186;9.222;2023-09-07T00:37:59;6.40;;;4.70;;
75169;SDS011;63749;49.186;9.222;2023-09-07T00:40:25;7.70;;;4.60;;
75169;SDS011;63749;49.186;9.222;2023-09-07T00:42:51;8.65;;;4.60;;
75169;SDS011;63749;49.186;9.222;2023-09-07T00:45:17;9.00;;;5.10;;
75169;SDS011;63749;49.186;9.222;2023-09-07T00:47:42;8.10;;;5.00;;
75169;SDS011;63749;49.186;9.222;2023-09-07T00:50:08;6.50;;;4.70;;
75169;SDS011;63749;49.186;9.222;2023-09-07T00:52:34;8.20;;;4.93;;
75169;SDS011;63749;49.186;9.222;2023-09-07T00:55:04;7.35;;;4.53;;
75169;SDS011;63749;49.186;9.222;2023-09-07T00:57:29;9.33;;;4.87;;
75169;SDS011;63749;49.186;9.222;2023-09-07T00:59:55;7.88;;;4.63;;
75169;SDS011;63749;49.186;9.222;2023-09-07T01:02:20;7.63;;;4.73;;
75169;SDS011;63749;49.186;9.222;2023-09-07T01:04:46;7.40;;;4.50;;
75169;SDS011;63749;49.186;9.222;2023-09-07T01:07:18;7.40;;;4.67;;
75169;SDS011;63749;49.186;9.222;2023-09-07T01:09:49;6.60;;;4.90;;
75169;SDS011;63749;49.186;9.222;2023-09-07T01:12:18;6.57;;;4.40;;
75169;SDS011;63749;49.186;9.222;2023-09-07T01:14:43;8.57;;;4.93;;
75169;SDS011;63749;49.186;9.222;2023-09-07T01:17:09;9.00;;;4.70;;
75169;SDS011;63749;49.186;9.222;2023-09-07T01:19:36;8.40;;;4.60;;
75169;SDS011;63749;49.186;9.222;2023-09-07T01:22:02;6.80;;;4.60;;
75169;SDS011;63749;49.186;9.222;2023-09-07T01:24:28;7.60;;;4.60;;
75169;SDS011;63749;49.186;9.222;2023-09-07T01:26:56;7.35;;;4.68;;
75169;SDS011;63749;49.186;9.222;2023-09-07T01:29:22;8.23;;;4.77;;
75169;SDS011;63749;49.186;9.222;2023-09-07T01:31:47;8.55;;;4.85;;
75169;SDS011;63749;49.186;9.222;2023-09-07T01:34:13;7.80;;;4.40;;
75169;SDS011;63749;49.186;9.222;2023-09-07T01:36:38;7.67;;;4.50;;
75169;SDS011;63749;49.186;9.222;2023-09-07T01:39:04;6.40;;;4.80;;
75169;SDS011;63749;49.186;9.222;2023-09-07T01:41:33;7.47;;;4.93;;
75169;SDS011;63749;49.186;9.222;2023-09-07T01:44:00;6.82;;;4.65;;
75169;SDS011;63749;49.186;9.222;2023-09-07T01:46:25;10.73;;;4.43;;
75169;SDS011;63749;49.186;9.222;2023-09-07T01:48:51;6.78;;;4.53;;
75169;SDS011;63749;49.186;9.222;2023-09-07T01:51:16;7.40;;;4.70;;
75169;SDS011;63749;49.186;9.222;2023-09-07T01:53:42;6.73;;;4.40;;
75169;SDS011;63749;49.186;9.222;2023-09-07T01:56:07;9.13;;;4.43;;
75169;SDS011;63749;49.186;9.222;2023-09-07T01:58:32;7.27;;;4.50;;
75169;SDS011;63749;49.186;9.222;2023-09-07T02:00:59;7.43;;;4.63;;
75169;SDS011;63749;49.186;9.222;2023-09-07T02:03:25;11.07;;;4.75;;
75169;SDS011;63749;49.186;9.222;2023-09-07T02:05:51;6.37;;;4.63;;
75169;SDS011;63749;49.186;9.222;2023-09-07T02:08:18;8.02;;;4.50;;
75169;SDS011;63749;49.186;9.222;2023-09-07T02:10:43;7.03;;;5.07;;
75169;SDS011;63749;49.186;9.222;2023-09-07T02:13:08;7.93;;;4.80;;
75169;SDS011;63749;49.186;9.222;2023-09-07T02:15:36;7.28;;;4.60;;
75169;SDS011;63749;49.186;9.222;2023-09-07T02:18:05;7.17;;;4.40;;
75169;SDS011;63749;49.186;9.222;2023-09-07T02:20:33;6.82;;;4.82;;
75169;SDS011;63749;49.186;9.222;2023-09-07T02:22:59;7.03;;;4.65;;
75169;SDS011;63749;49.186;9.222;2023-09-07T02:25:25;9.53;;;4.67;;
75169;SDS011;63749;49.186;9.222;2023-09-07T02:27:50;5.80;;;4.53;;
75169;SDS011;63749;49.186;9.222;2023-09-07T02:30:16;8.17;;;5.03;;
75169;SDS011;63749;49.186;9.222;2023-09-07T02:32:42;8.45;;;5.13;;
75169;SDS011;63749;49.186;9.222;2023-09-07T02:35:08;8.18;;;4.93;;
75169;SDS011;63749;49.186;9.222;2023-09-07T02:37:35;7.27;;;4.57;;
75169;SDS011;63749;49.186;9.222;2023-09-07T02:40:01;8.05;;;5.10;;
75169;SDS011;63749;49.186;9.222;2023-09-07T02:42:26;6.40;;;4.90;;
75169;SDS011;63749;49.186;9.222;2023-09-07T02:44:52;7.78;;;4.90;;
75169;SDS011;63749;49.186;9.222;2023-09-07T02:47:17;6.60;;;5.00;;
75169;SDS011;63749;49.186;9.222;2023-09-07T02:49:42;6.77;;;5.00;;
75169;SDS011;63749;49.186;9.222;2023-09-07T02:52:09;10.20;;;5.27;;
75169;SDS011;63749;49.186;9.222;2023-09-07T02:54:34;9.32;;;5.20;;
75169;SDS011;63749;49.186;9.222;2023-09-07T02:57:00;8.33;;;5.33;;
75169;SDS011;63749;49.186;9.222;2023-09-07T02:59:25;9.20;;;5.20;;
75169;SDS011;63749;49.186;9.222;2023-09-07T03:01:52;8.30;;;5.40;;
75169;SDS011;63749;49.186;9.222;2023-09-07T03:04:17;7.70;;;5.50;;
75169;SDS011;63749;49.186;9.222;2023-09-07T03:06:43;8.13;;;5.20;;
75169;SDS011;63749;49.186;9.222;2023-09-07T03:09:08;7.53;;;5.30;;
75169;SDS011;63749;49.186;9.222;2023-09-07T03:11:34;10.00;;;5.50;;
75169;SDS011;63749;49.186;9.222;2023-09-07T03:14:00;7.47;;;5.10;;
75169;SDS011;63749;49.186;9.222;2023-09-07T03:16:25;8.70;;;5.30;;
75169;SDS011;63749;49.186;9.222;2023-09-07T03:18:50;7.23;;;5.20;;
75169;SDS011;63749;49.186;9.222;2023-09-07T03:21:16;9.47;;;5.40;;
75169;SDS011;63749;49.186;9.222;2023-09-07T03:23:42;7.65;;;5.28;;
75169;SDS011;63749;49.186;9.222;2023-09-07T03:26:09;6.43;;;4.95;;
75169;SDS011;63749;49.186;9.222;2023-09-07T03:28:35;10.27;;;5.40;;
75169;SDS011;63749;49.186;9.222;2023-09-07T03:31:00;8.63;;;5.07;;
75169;SDS011;63749;49.186;9.222;2023-09-07T03:33:26;8.87;;;5.30;;
75169;SDS011;63749;49.186;9.222;2023-09-07T03:35:51;8.77;;;5.50;;
75169;SDS011;63749;49.186;9.222;2023-09-07T03:38:17;7.47;;;5.43;;
75169;SDS011;63749;49.186;9.222;2023-09-07T03:40:42;9.03;;;5.67;;
75169;SDS011;63749;49.186;9.222;2023-09-07T03:43:08;7.63;;;5.60;;
75169;SDS011;63749;49.186;9.222;2023-09-07T03:45:34;8.32;;;5.78;;
75169;SDS011;63749;49.186;9.222;2023-09-07T03:47:59;8.00;;;5.80;;
75169;SDS011;63749;49.186;9.222;2023-09-07T03:50:25;7.53;;;5.87;;
75169;SDS011;63749;49.186;9.222;2023-09-07T03:52:50;8.70;;;5.67;;
75169;SDS011;63749;49.186;9.222;2023-09-07T03:55:16;8.70;;;5.57;;
75169;SDS011;63749;49.186;9.222;2023-09-07T03:57:41;9.23;;;5.93;;
75169;SDS011;63749;49.186;9.222;2023-09-07T04:00:06;9.80;;;6.27;;
75169;SDS011;63749;49.186;9.222;2023-09-07T04:02:33;9.82;;;6.40;;
75169;SDS011;63749;49.186;9.222;2023-09-07T04:04:59;11.80;;;6.67;;
75169;SDS011;63749;49.186;9.222;2023-09-07T04:07:26;12.32;;;7.72;;
75169;SDS011;63749;49.186;9.222;2023-09-07T04:09:52;11.43;;;7.30;;
75169;SDS011;63749;49.186;9.222;2023-09-07T04:12:17;14.23;;;7.50;;
75169;SDS011;63749;49.186;9.222;2023-09-07T04:14:42;11.73;;;7.75;;
75169;SDS011;63749;49.186;9.222;2023-09-07T04:17:09;11.50;;;8.00;;
75169;SDS011;63749;49.186;9.222;2023-09-07T04:19:35;12.43;;;8.20;;
75169;SDS011;63749;49.186;9.222;2023-09-07T04:22:00;12.70;;;8.43;;
75169;SDS011;63749;49.186;9.222;2023-09-07T04:24:26;14.50;;;8.40;;
75169;SDS011;63749;49.186;9.222;2023-09-07T04:26:57;14.40;;;8.15;;
75169;SDS011;63749;49.186;9.222;2023-09-07T04:29:26;12.68;;;8.65;;
75169;SDS011;63749;49.186;9.222;2023-09-07T04:31:52;13.48;;;8.90;;
75169;SDS011;63749;49.186;9.222;2023-09-07T04:34:18;12.67;;;8.27;;
75169;SDS011;63749;49.186;9.222;2023-09-07T04:36:43;13.10;;;8.40;;
75169;SDS011;63749;49.186;9.222;2023-09-07T04:39:10;13.50;;;9.20;;
75169;SDS011;63749;49.186;9.222;2023-09-07T04:41:35;14.48;;;8.88;;
75169;SDS011;63749;49.186;9.222;2023-09-07T04:44:01;13.00;;;8.57;;
75169;SDS011;63749;49.186;9.222;2023-09-07T04:46:26;15.95;;;8.75;;
75169;SDS011;63749;49.186;9.222;2023-09-07T04:48:52;12.23;;;8.77;;
75169;SDS011;63749;49.186;9.222;2023-09-07T04:51:17;13.13;;;8.83;;
75169;SDS011;63749;49.186;9.222;2023-09-07T04:53:43;11.93;;;8.57;;
75169;SDS011;63749;49.186;9.222;2023-09-07T04:56:08;12.53;;;8.63;;
75169;SDS011;63749;49.186;9.222;2023-09-07T04:58:34;15.03;;;8.63;;
75169;SDS011;63749;49.186;9.222;2023-09-07T05:01:03;12.80;;;8.43;;
75169;SDS011;63749;49.186;9.222;2023-09-07T05:03:29;12.07;;;8.50;;
75169;SDS011;63749;49.186;9.222;2023-09-07T05:05:55;12.83;;;8.70;;
75169;SDS011;63749;49.186;9.222;2023-09-07T05:08:21;11.68;;;8.40;;
75169;SDS011;63749;49.186;9.222;2023-09-07T05:10:47;10.80;;;7.80;;
75169;SDS011;63749;49.186;9.222;2023-09-07T05:13:13;12.40;;;7.73;;
75169;SDS011;63749;49.186;9.222;2023-09-07T05:15:46;12.47;;;7.53;;
75169;SDS011;63749;49.186;9.222;2023-09-07T05:18:13;12.15;;;7.55;;
75169;SDS011;63749;49.186;9.222;2023-09-07T05:20:38;10.50;;;7.07;;
75169;SDS011;63749;49.186;9.222;2023-09-07T05:23:03;10.37;;;7.20;;
75169;SDS011;63749;49.186;9.222;2023-09-07T05:25:29;11.45;;;6.93;;
75169;SDS011;63749;49.186;9.222;2023-09-07T05:27:54;10.10;;;6.97;;
75169;SDS011;63749;49.186;9.222;2023-09-07T05:30:20;9.10;;;6.70;;
75169;SDS011;63749;49.186;9.222;2023-09-07T05:32:45;9.03;;;6.53;;
75169;SDS011;63749;49.186;9.222;2023-09-07T05:35:10;12.97;;;7.30;;
75169;SDS011;63749;49.186;9.222;2023-09-07T05:37:37;9.77;;;7.20;;
75169;SDS011;63749;49.186;9.222;2023-09-07T05:40:02;11.30;;;7.32;;
75169;SDS011;63749;49.186;9.222;2023-09-07T05:42:29;11.13;;;7.20;;
75169;SDS011;63749;49.186;9.222;2023-09-07T05:44:54;15.18;;;7.25;;
75169;SDS011;63749;49.186;9.222;2023-09-07T05:47:19;11.13;;;6.90;;
75169;SDS011;63749;49.186;9.222;2023-09-07T05:49:45;11.23;;;6.47;;
75169;SDS011;63749;49.186;9.222;2023-09-07T05:52:10;11.37;;;6.70;;
75169;SDS011;63749;49.186;9.222;2023-09-07T05:54:35;10.37;;;6.70;;
75169;SDS011;63749;49.186;9.222;2023-09-07T05:57:01;10.17;;;6.60;;
75169;SDS011;63749;49.186;9.222;2023-09-07T05:59:26;10.90;;;6.60;;
75169;SDS011;63749;49.186;9.222;2023-09-07T06:01:51;7.87;;;6.07;;
75169;SDS011;63749;49.186;9.222;2023-09-07T06:04:17;9.50;;;6.67;;
75169;SDS011;63749;49.186;9.222;2023-09-07T06:06:42;8.60;;;6.20;;
75169;SDS011;63749;49.186;9.222;2023-09-07T06:09:07;11.87;;;6.30;;
75169;SDS011;63749;49.186;9.222;2023-09-07T06:11:33;11.83;;;6.60;;
75169;SDS011;63749;49.186;9.222;2023-09-07T06:13:59;9.38;;;6.50;;
75169;SDS011;63749;49.186;9.222;2023-09-07T06:16:25;11.20;;;6.17;;
75169;SDS011;63749;49.186;9.222;2023-09-07T06:18:50;12.15;;;6.97;;
75169;SDS011;63749;49.186;9.222;2023-09-07T06:21:16;8.50;;;6.40;;
75169;SDS011;63749;49.186;9.222;2023-09-07T06:23:41;11.17;;;6.33;;
75169;SDS011;63749;49.186;9.222;2023-09-07T06:26:07;11.85;;;6.38;;
75169;SDS011;63749;49.186;9.222;2023-09-07T06:28:32;11.53;;;6.53;;
75169;SDS011;63749;49.186;9.222;2023-09-07T06:30:58;9.75;;;6.47;;
75169;SDS011;63749;49.186;9.222;2023-09-07T06:33:24;8.23;;;6.33;;
75169;SDS011;63749;49.186;9.222;2023-09-07T06:35:49;8.60;;;6.60;;
75169;SDS011;63749;49.186;9.222;2023-09-07T06:38:14;9.40;;;6.10;;
75169;SDS011;63749;49.186;9.222;2023-09-07T06:40:40;8.37;;;5.80;;
75169;SDS011;63749;49.186;9.222;2023-09-07T06:43:05;9.15;;;5.82;;
75169;SDS011;63749;49.186;9.222;2023-09-07T06:45:34;10.10;;;6.17;;
75169;SDS011;63749;49.186;9.222;2023-09-07T06:48:01;10.50;;;6.20;;
75169;SDS011;63749;49.186;9.222;2023-09-07T06:50:27;8.02;;;6.03;;
75169;SDS011;63749;49.186;9.222;2023-09-07T06:52:52;8.37;;;5.90;;
75169;SDS011;63749;49.186;9.222;2023-09-07T06:55:17;9.97;;;5.93;;
75169;SDS011;63749;49.186;9.222;2023-09-07T06:57:43;8.67;;;5.90;;
75169;SDS011;63749;49.186;9.222;2023-09-07T07:00:08;7.83;;;5.30;;
75169;SDS011;63749;49.186;9.222;2023-09-07T07:02:34;9.48;;;5.88;;
75169;SDS011;63749;49.186;9.222;2023-09-07T07:05:00;7.97;;;5.40;;
75169;SDS011;63749;49.186;9.222;2023-09-07T07:07:25;7.70;;;5.80;;
75169;SDS011;63749;49.186;9.222;2023-09-07T07:09:51;7.60;;;5.50;;
75169;SDS011;63749;49.186;9.222;2023-09-07T07:12:17;10.30;;;5.70;;
75169;SDS011;63749;49.186;9.222;2023-09-07T07:14:43;7.97;;;5.22;;
75169;SDS011;63749;49.186;9.222;2023-09-07T07:17:09;8.00;;;5.50;;
75169;SDS011;63749;49.186;9.222;2023-09-07T07:19:34;7.00;;;5.60;;
75169;SDS011;63749;49.186;9.222;2023-09-07T07:21:59;7.87;;;5.17;;
75169;SDS011;63749;49.186;9.222;2023-09-07T07:24:25;6.75;;;5.20;;
75169;SDS011;63749;49.186;9.222;2023-09-07T07:26:50;8.57;;;5.70;;
75169;SDS011;63749;49.186;9.222;2023-09-07T07:29:15;10.73;;;5.33;;
75169;SDS011;63749;49.186;9.222;2023-09-07T07:31:41;11.03;;;5.40;;
75169;SDS011;63749;49.186;9.222;2023-09-07T07:34:06;8.13;;;5.27;;
75169;SDS011;63749;49.186;9.222;2023-09-07T07:36:31;7.93;;;5.50;;
75169;SDS011;63749;49.186;9.222;2023-09-07T07:38:57;7.88;;;5.18;;
75169;SDS011;63749;49.186;9.222;2023-09-07T07:41:22;9.20;;;5.50;;
75169;SDS011;63749;49.186;9.222;2023-09-07T07:43:47;8.20;;;5.27;;
75169;SDS011;63749;49.186;9.222;2023-09-07T07:46:13;9.10;;;5.07;;
75169;SDS011;63749;49.186;9.222;2023-09-07T07:48:41;8.52;;;4.93;;
75169;SDS011;63749;49.186;9.222;2023-09-07T07:51:06;7.33;;;5.07;;
75169;SDS011;63749;49.186;9.222;2023-09-07T07:53:33;8.18;;;5.32;;
75169;SDS011;63749;49.186;9.222;2023-09-07T07:55:59;9.03;;;4.73;;
75169;SDS011;63749;49.186;9.222;2023-09-07T07:58:24;8.13;;;5.60;;
75169;SDS011;63749;49.186;9.222;2023-09-07T08:00:50;8.43;;;5.03;;
75169;SDS011;63749;49.186;9.222;2023-09-07T08:03:15;8.00;;;5.20;;
75169;SDS011;63749;49.186;9.222;2023-09-07T08:05:42;8.10;;;5.15;;
75169;SDS011;63749;49.186;9.222;2023-09-07T08:08:07;7.35;;;5.30;;
75169;SDS011;63749;49.186;9.222;2023-09-07T08:10:33;7.13;;;5.10;;
75169;SDS011;63749;49.186;9.222;2023-09-07T08:13:02;7.68;;;4.95;;
75169;SDS011;63749;49.186;9.222;2023-09-07T08:15:29;6.55;;;5.10;;
75169;SDS011;63749;49.186;9.222;2023-09-07T08:17:54;8.95;;;4.82;;
75169;SDS011;63749;49.186;9.222;2023-09-07T08:20:20;8.97;;;5.10;;
75169;SDS011;63749;49.186;9.222;2023-09-07T08:22:45;7.97;;;5.10;;
75169;SDS011;63749;49.186;9.222;2023-09-07T08:25:11;7.65;;;5.00;;
75169;SDS011;63749;49.186;9.222;2023-09-07T08:27:43;6.40;;;4.80;;
75169;SDS011;63749;49.186;9.222;2023-09-07T08:30:11;8.95;;;5.70;;
75169;SDS011;63749;49.186;9.222;2023-09-07T08:32:37;8.75;;;5.00;;
75169;SDS011;63749;49.186;9.222;2023-09-07T08:35:03;8.20;;;4.90;;
75169;SDS011;63749;49.186;9.222;2023-09-07T08:37:32;6.80;;;4.60;;
75169;SDS011;63749;49.186;9.222;2023-09-07T08:39:58;8.07;;;4.70;;
75169;SDS011;63749;49.186;9.222;2023-09-07T08:42:24;6.93;;;4.93;;
75169;SDS011;63749;49.186;9.222;2023-09-07T08:44:50;10.67;;;7.10;;
75169;SDS011;63749;49.186;9.222;2023-09-07T08:47:16;8.20;;;5.53;;
75169;SDS011;63749;49.186;9.222;2023-09-07T08:49:43;6.78;;;4.53;;
75169;SDS011;63749;49.186;9.222;2023-09-07T08:52:10;6.93;;;5.00;;
75169;SDS011;63749;49.186;9.222;2023-09-07T08:54:36;9.40;;;5.40;;
75169;SDS011;63749;49.186;9.222;2023-09-07T08:57:02;7.88;;;5.30;;
75169;SDS011;63749;49.186;9.222;2023-09-07T08:59:31;7.40;;;4.80;;
75169;SDS011;63749;49.186;9.222;2023-09-07T09:01:56;6.30;;;4.47;;
75169;SDS011;63749;49.186;9.222;2023-09-07T09:04:23;6.40;;;4.60;;
75169;SDS011;63749;49.186;9.222;2023-09-07T09:06:49;7.25;;;4.60;;
75169;SDS011;63749;49.186;9.222;2023-09-07T09:09:23;7.93;;;4.67;;
75169;SDS011;63749;49.186;9.222;2023-09-07T09:11:52;6.72;;;4.40;;
75169;SDS011;63749;49.186;9.222;2023-09-07T09:14:18;15.20;;;7.47;;
75169;SDS011;63749;49.186;9.222;2023-09-07T09:16:50;18.73;;;12.63;;
75169;SDS011;63749;49.186;9.222;2023-09-07T09:19:16;8.20;;;5.15;;
75169;SDS011;63749;49.186;9.222;2023-09-07T09:21:43;6.43;;;4.80;;
75169;SDS011;63749;49.186;9.222;2023-09-07T09:24:10;6.93;;;4.95;;
75169;SDS011;63749;49.186;9.222;2023-09-07T09:26:37;7.43;;;5.40;;
75169;SDS011;63749;49.186;9.222;2023-09-07T09:29:02;7.70;;;4.60;;
75169;SDS011;63749;49.186;9.222;2023-09-07T09:31:29;8.27;;;4.70;;
75169;SDS011;63749;49.186;9.222;2023-09-07T09:33:55;6.38;;;4.68;;
75169;SDS011;63749;49.186;9.222;2023-09-07T09:36:21;8.63;;;4.70;;
75169;SDS011;63749;49.186;9.222;2023-09-07T09:38:47;6.63;;;4.60;;
75169;SDS011;63749;49.186;9.222;2023-09-07T09:41:15;7.00;;;4.80;;
75169;SDS011;63749;49.186;9.222;2023-09-07T09:43:42;7.00;;;4.70;;
75169;SDS011;63749;49.186;9.222;2023-09-07T09:46:09;7.45;;;4.28;;
75169;SDS011;63749;49.186;9.222;2023-09-07T09:48:35;6.72;;;4.72;;
75169;SDS011;63749;49.186;9.222;2023-09-07T09:51:01;6.40;;;4.90;;
75169;SDS011;63749;49.186;9.222;2023-09-07T09:53:28;8.18;;;4.95;;
75169;SDS011;63749;49.186;9.222;2023-09-07T09:55:55;6.60;;;4.78;;
75169;SDS011;63749;49.186;9.222;2023-09-07T09:58:20;7.80;;;4.80;;
75169;SDS011;63749;49.186;9.222;2023-09-07T10:00:47;6.07;;;4.70;;
75169;SDS011;63749;49.186;9.222;2023-09-07T10:03:24;9.90;;;4.83;;
75169;SDS011;63749;49.186;9.222;2023-09-07T10:05:52;6.20;;;4.80;;
75169;SDS011;63749;49.186;9.222;2023-09-07T10:08:18;8.27;;;4.88;;
75169;SDS011;63749;49.186;9.222;2023-09-07T10:10:49;7.07;;;4.68;;
75169;SDS011;63749;49.186;9.222;2023-09-07T10:13:30;6.23;;;4.57;;
75169;SDS011;63749;49.186;9.222;2023-09-07T10:16:06;8.35;;;4.63;;
75169;SDS011;63749;49.186;9.222;2023-09-07T10:18:35;5.75;;;4.60;;
75169;SDS011;63749;49.186;9.222;2023-09-07T10:21:02;5.28;;;4.53;;
75169;SDS011;63749;49.186;9.222;2023-09-07T10:23:40;7.70;;;4.83;;
75169;SDS011;63749;49.186;9.222;2023-09-07T10:26:25;7.37;;;4.87;;
75169;SDS011;63749;49.186;9.222;2023-09-07T10:29:00;6.30;;;4.70;;
75169;SDS011;63749;49.186;9.222;2023-09-07T10:31:28;7.47;;;4.80;;
75169;SDS011;63749;49.186;9.222;2023-09-07T10:33:55;6.35;;;4.70;;
75169;SDS011;63749;49.186;9.222;2023-09-07T10:36:21;8.30;;;4.70;;
75169;SDS011;63749;49.186;9.222;2023-09-07T10:38:48;7.10;;;4.60;;
75169;SDS011;63749;49.186;9.222;2023-09-07T10:41:14;8.20;;;4.60;;
75169;SDS011;63749;49.186;9.222;2023-09-07T10:43:46;8.53;;;4.13;;
75169;SDS011;63749;49.186;9.222;2023-09-07T10:46:19;6.68;;;4.60;;
75169;SDS011;63749;49.186;9.222;2023-09-07T10:48:48;10.13;;;4.53;;
75169;SDS011;63749;49.186;9.222;2023-09-07T10:51:14;8.85;;;4.22;;
75169;SDS011;63749;49.186;9.222;2023-09-07T10:53:40;5.30;;;4.60;;
75169;SDS011;63749;49.186;9.222;2023-09-07T10:56:06;6.82;;;4.30;;
75169;SDS011;63749;49.186;9.222;2023-09-07T10:58:32;5.70;;;4.57;;
75169;SDS011;63749;49.186;9.222;2023-09-07T11:00:58;7.05;;;4.65;;
75169;SDS011;63749;49.186;9.222;2023-09-07T11:03:25;7.50;;;4.38;;
75169;SDS011;63749;49.186;9.222;2023-09-07T11:05:53;10.63;;;5.10;;
75169;SDS011;63749;49.186;9.222;2023-09-07T11:08:20;6.73;;;4.40;;
75169;SDS011;63749;49.186;9.222;2023-09-07T11:10:46;5.97;;;4.30;;
75169;SDS011;63749;49.186;9.222;2023-09-07T11:13:11;7.20;;;4.53;;
75169;SDS011;63749;49.186;9.222;2023-09-07T11:15:37;8.33;;;4.70;;
75169;SDS011;63749;49.186;9.222;2023-09-07T11:18:07;7.43;;;4.50;;
75169;SDS011;63749;49.186;9.222;2023-09-07T11:20:33;5.70;;;4.22;;
75169;SDS011;63749;49.186;9.222;2023-09-07T11:22:59;5.70;;;4.63;;
75169;SDS011;63749;49.186;9.222;2023-09-07T11:25:25;7.22;;;4.70;;
75169;SDS011;63749;49.186;9.222;2023-09-07T11:27:51;5.37;;;4.70;;
75169;SDS011;63749;49.186;9.222;2023-09-07T11:30:20;9.55;;;4.60;;
75169;SDS011;63749;49.186;9.222;2023-09-07T11:32:46;7.68;;;4.65;;
75169;SDS011;63749;49.186;9.222;2023-09-07T11:35:12;10.87;;;4.30;;
75169;SDS011;63749;49.186;9.222;2023-09-07T11:37:37;9.43;;;4.50;;
75169;SDS011;63749;49.186;9.222;2023-09-07T11:40:03;5.50;;;4.10;;
75169;SDS011;63749;49.186;9.222;2023-09-07T11:42:36;6.57;;;4.40;;
75169;SDS011;63749;49.186;9.222;2023-09-07T11:45:01;5.97;;;4.60;;
75169;SDS011;63749;49.186;9.222;2023-09-07T11:47:26;6.73;;;4.50;;
75169;SDS011;63749;49.186;9.222;2023-09-07T11:49:52;8.50;;;4.50;;
75169;SDS011;63749;49.186;9.222;2023-09-07T11:52:18;5.83;;;4.40;;
75169;SDS011;63749;49.186;9.222;2023-09-07T11:54:43;5.40;;;4.32;;
75169;SDS011;63749;49.186;9.222;2023-09-07T11:57:09;7.20;;;4.50;;
75169;SDS011;63749;49.186;9.222;2023-09-07T11:59:34;7.13;;;4.17;;
75169;SDS011;63749;49.186;9.222;2023-09-07T12:01:59;5.60;;;4.30;;
75169;SDS011;63749;49.186;9.222;2023-09-07T12:04:25;7.17;;;4.30;;
75169;SDS011;63749;49.186;9.222;2023-09-07T12:06:51;6.27;;;4.30;;
75169;SDS011;63749;49.186;9.222;2023-09-07T12:09:16;8.00;;;4.20;;
75169;SDS011;63749;49.186;9.222;2023-09-07T12:11:42;9.97;;;4.40;;
75169;SDS011;63749;49.186;9.222;2023-09-07T12:14:08;9.75;;;4.30;;
75169;SDS011;63749;49.186;9.222;2023-09-07T12:16:34;8.57;;;4.20;;
75169;SDS011;63749;49.186;9.222;2023-09-07T12:18:59;5.50;;;4.20;;
75169;SDS011;63749;49.186;9.222;2023-09-07T12:21:25;7.80;;;4.03;;
75169;SDS011;63749;49.186;9.222;2023-09-07T12:23:50;9.07;;;4.33;;
75169;SDS011;63749;49.186;9.222;2023-09-07T12:26:15;6.43;;;3.90;;
75169;SDS011;63749;49.186;9.222;2023-09-07T12:28:45;6.38;;;4.40;;
75169;SDS011;63749;49.186;9.222;2023-09-07T12:31:11;8.10;;;4.40;;
75169;SDS011;63749;49.186;9.222;2023-09-07T12:33:37;8.27;;;4.20;;
75169;SDS011;63749;49.186;9.222;2023-09-07T12:36:02;5.57;;;4.23;;
75169;SDS011;63749;49.186;9.222;2023-09-07T12:38:28;7.00;;;4.60;;
75169;SDS011;63749;49.186;9.222;2023-09-07T12:40:54;6.25;;;4.50;;
75169;SDS011;63749;49.186;9.222;2023-09-07T12:43:20;11.13;;;4.30;;
75169;SDS011;63749;49.186;9.222;2023-09-07T12:45:45;7.13;;;4.53;;
75169;SDS011;63749;49.186;9.222;2023-09-07T12:48:11;8.50;;;4.32;;
75169;SDS011;63749;49.186;9.222;2023-09-07T12:50:36;7.07;;;4.67;;
75169;SDS011;63749;49.186;9.222;2023-09-07T12:53:01;5.97;;;4.90;;
75169;SDS011;63749;49.186;9.222;2023-09-07T12:55:27;5.90;;;4.72;;
75169;SDS011;63749;49.186;9.222;2023-09-07T12:57:54;5.30;;;4.80;;
75169;SDS011;63749;49.186;9.222;2023-09-07T13:00:20;7.10;;;4.83;;
75169;SDS011;63749;49.186;9.222;2023-09-07T13:02:45;12.00;;;5.40;;
75169;SDS011;63749;49.186;9.222;2023-09-07T13:05:10;6.83;;;5.13;;
75169;SDS011;63749;49.186;9.222;2023-09-07T13:07:36;5.93;;;4.97;;
75169;SDS011;63749;49.186;9.222;2023-09-07T13:10:01;6.32;;;5.15;;
75169;SDS011;63749;49.186;9.222;2023-09-07T13:12:29;6.03;;;4.80;;
75169;SDS011;63749;49.186;9.222;2023-09-07T13:14:57;7.43;;;5.27;;
75169;SDS011;63749;49.186;9.222;2023-09-07T13:17:23;6.60;;;4.78;;
75169;SDS011;63749;49.186;9.222;2023-09-07T13:19:48;6.97;;;5.17;;
75169;SDS011;63749;49.186;9.222;2023-09-07T13:22:13;7.07;;;5.10;;
75169;SDS011;63749;49.186;9.222;2023-09-07T13:24:39;7.43;;;5.00;;
75169;SDS011;63749;49.186;9.222;2023-09-07T13:27:04;6.97;;;5.10;;
75169;SDS011;63749;49.186;9.222;2023-09-07T13:29:31;6.25;;;5.15;;
75169;SDS011;63749;49.186;9.222;2023-09-07T13:31:59;7.35;;;4.75;;
75169;SDS011;63749;49.186;9.222;2023-09-07T13:34:25;7.87;;;5.00;;
75169;SDS011;63749;49.186;9.222;2023-09-07T13:36:51;6.13;;;5.00;;
75169;SDS011;63749;49.186;9.222;2023-09-07T13:39:16;6.77;;;5.00;;
75169;SDS011;63749;49.186;9.222;2023-09-07T13:41:41;6.20;;;5.30;;
75169;SDS011;63749;49.186;9.222;2023-09-07T13:44:07;10.50;;;5.45;;
75169;SDS011;63749;49.186;9.222;2023-09-07T13:46:33;8.33;;;4.90;;
75169;SDS011;63749;49.186;9.222;2023-09-07T13:48:59;8.35;;;5.10;;
75169;SDS011;63749;49.186;9.222;2023-09-07T13:51:25;8.65;;;5.88;;
75169;SDS011;63749;49.186;9.222;2023-09-07T13:53:50;8.17;;;5.30;;
75169;SDS011;63749;49.186;9.222;2023-09-07T13:56:17;6.63;;;5.20;;
75169;SDS011;63749;49.186;9.222;2023-09-07T13:58:42;7.77;;;5.37;;
75169;SDS011;63749;49.186;9.222;2023-09-07T14:01:08;6.32;;;5.18;;
75169;SDS011;63749;49.186;9.222;2023-09-07T14:03:33;6.50;;;5.13;;
75169;SDS011;63749;49.186;9.222;2023-09-07T14:05:59;9.03;;;5.37;;
75169;SDS011;63749;49.186;9.222;2023-09-07T14:08:24;6.70;;;5.20;;
75169;SDS011;63749;49.186;9.222;2023-09-07T14:10:50;6.03;;;5.10;;
75169;SDS011;63749;49.186;9.222;2023-09-07T14:13:17;6.22;;;5.20;;
75169;SDS011;63749;49.186;9.222;2023-09-07T14:15:43;7.47;;;5.05;;
75169;SDS011;63749;49.186;9.222;2023-09-07T14:18:09;7.32;;;5.35;;
75169;SDS011;63749;49.186;9.222;2023-09-07T14:20:34;6.77;;;5.33;;
75169;SDS011;63749;49.186;9.222;2023-09-07T14:23:00;5.90;;;5.30;;
75169;SDS011;63749;49.186;9.222;2023-09-07T14:25:26;7.47;;;5.40;;
75169;SDS011;63749;49.186;9.222;2023-09-07T14:27:52;8.85;;;5.32;;
75169;SDS011;63749;49.186;9.222;2023-09-07T14:30:17;7.18;;;5.47;;
75169;SDS011;63749;49.186;9.222;2023-09-07T14:32:43;7.20;;;5.37;;
75169;SDS011;63749;49.186;9.222;2023-09-07T14:35:09;6.35;;;5.60;;
75169;SDS011;63749;49.186;9.222;2023-09-07T14:37:34;6.93;;;5.33;;
75169;SDS011;63749;49.186;9.222;2023-09-07T14:40:00;8.85;;;5.20;;